createdAt,value
2023-02-24T00:02:01.155Z,3.47
2023-02-24T00:04:38.402Z,3.50
2023-02-24T00:07:10.755Z,3.80
2023-02-24T00:09:39.625Z,4.03
2023-02-24T00:12:15.719Z,3.60
2023-02-24T00:14:45.086Z,2.80
2023-02-24T00:17:16.029Z,8.63
2023-02-24T00:19:43.456Z,5.20
2023-02-24T00:22:10.951Z,8.30
2023-02-24T00:24:38.679Z,8.93
2023-02-24T00:27:13.271Z,5.03
2023-02-24T00:29:41.800Z,4.37
2023-02-24T00:32:12.660Z,3.57
2023-02-24T00:34:41.316Z,8.67
2023-02-24T00:37:08.640Z,5.20
2023-02-24T00:39:41.112Z,4.80
2023-02-24T00:42:11.543Z,5.10
2023-02-24T00:44:41.322Z,2.13
2023-02-24T00:47:10.272Z,4.50
2023-02-24T00:49:42.014Z,2.83
2023-02-24T00:52:14.045Z,4.27
2023-02-24T00:54:42.636Z,2.73
2023-02-24T00:57:10.665Z,3.50
2023-02-24T00:59:38.963Z,5.87
2023-02-24T01:02:07.141Z,5.57
2023-02-24T01:04:37.623Z,5.63
2023-02-24T01:07:10.715Z,2.80
2023-02-24T01:09:41.688Z,6.23
2023-02-24T01:12:29.798Z,10.03
2023-02-24T01:14:57.283Z,2.13
2023-02-24T01:17:25.268Z,4.27
2023-02-24T01:19:52.957Z,4.47
2023-02-24T01:22:21.094Z,3.73
2023-02-24T01:24:48.996Z,5.10
2023-02-24T01:27:21.036Z,7.07
2023-02-24T01:30:15.642Z,8.40
2023-02-24T01:32:44.360Z,2.30
2023-02-24T01:35:12.539Z,3.67
2023-02-24T01:37:39.749Z,4.47
2023-02-24T01:40:11.851Z,4.47
2023-02-24T01:42:41.736Z,5.03
2023-02-24T01:45:15.582Z,9.37
2023-02-24T01:47:47.193Z,14.60
2023-02-24T01:50:16.055Z,3.30
2023-02-24T01:52:46.907Z,1.90
2023-02-24T01:55:25.511Z,4.63
2023-02-24T01:57:53.835Z,4.83
2023-02-24T02:00:38.141Z,5.13
2023-02-24T02:03:33.791Z,1.90
2023-02-24T02:06:03.900Z,3.90
2023-02-24T02:08:32.170Z,3.43
2023-02-24T02:11:04.901Z,4.93
2023-02-24T02:13:36.288Z,2.73
2023-02-24T02:16:25.493Z,6.13
2023-02-24T02:19:16.597Z,4.97
2023-02-24T02:21:56.209Z,4.10
2023-02-24T02:25:09.535Z,1.53
2023-02-24T02:27:51.218Z,5.40
2023-02-24T02:30:45.858Z,3.13
2023-02-24T02:33:47.781Z,1.30
2023-02-24T02:36:42.484Z,4.67
2023-02-24T02:39:24.709Z,3.90
2023-02-24T02:42:18.195Z,4.87
2023-02-24T02:45:06.165Z,3.83
2023-02-24T02:47:53.821Z,3.87
2023-02-24T02:50:35.832Z,3.40
2023-02-24T02:53:09.507Z,3.63
2023-02-24T02:55:49.632Z,2.70
2023-02-24T02:58:23.540Z,3.27
2023-02-24T03:01:01.673Z,3.87
2023-02-24T03:03:39.848Z,4.43
2023-02-24T03:06:15.399Z,1.07
2023-02-24T03:08:52.338Z,4.10
2023-02-24T03:11:23.648Z,5.73
2023-02-24T03:13:55.888Z,3.67
2023-02-24T03:16:26.417Z,2.27
2023-02-24T03:18:59.049Z,3.07
2023-02-24T03:21:45.868Z,2.10
2023-02-24T03:24:15.562Z,2.77
2023-02-24T03:26:57.232Z,5.70
2023-02-24T03:29:42.990Z,6.37
2023-02-24T03:32:22.965Z,2.83
2023-02-24T03:35:04.416Z,3.97
2023-02-24T03:37:33.525Z,3.33
2023-02-24T03:40:11.577Z,9.60
2023-02-24T03:42:42.174Z,3.50
2023-02-24T03:45:09.996Z,5.43
2023-02-24T03:47:37.832Z,4.53
2023-02-24T03:50:16.198Z,3.23
2023-02-24T03:53:06.771Z,6.93
2023-02-24T03:55:59.089Z,4.30
2023-02-24T03:58:59.816Z,1.50
2023-02-24T04:01:55.679Z,2.90
2023-02-24T04:04:37.557Z,1.57
2023-02-24T04:07:44.657Z,8.83
2023-02-24T04:10:21.796Z,1.90
2023-02-24T04:13:04.859Z,4.03
2023-02-24T04:15:43.670Z,6.40
2023-02-24T04:18:27.252Z,5.70
2023-02-24T04:20:56.622Z,5.90
2023-02-24T04:23:29.785Z,4.23
2023-02-24T04:25:56.952Z,4.13
2023-02-24T04:28:27.664Z,3.67
2023-02-24T04:31:00.625Z,3.10
2023-02-24T04:33:28.233Z,2.83
2023-02-24T04:35:56.027Z,2.80
2023-02-24T04:38:24.085Z,2.17
2023-02-24T04:40:51.413Z,3.60
2023-02-24T04:43:18.839Z,2.30
2023-02-24T04:45:46.436Z,4.20
2023-02-24T04:48:13.897Z,2.67
2023-02-24T04:50:43.757Z,7.53
2023-02-24T04:53:16.834Z,3.13
2023-02-24T04:55:50.291Z,4.37
2023-02-24T04:58:20.404Z,3.63
2023-02-24T05:00:52.485Z,4.00
2023-02-24T05:03:22.220Z,3.40
2023-02-24T05:05:56.809Z,5.33
2023-02-24T05:08:25.953Z,4.43
2023-02-24T05:10:54.481Z,2.90
2023-02-24T05:13:27.921Z,4.70
2023-02-24T05:15:58.067Z,4.17
2023-02-24T05:18:25.786Z,5.03
2023-02-24T05:21:14.064Z,6.97
2023-02-24T05:23:46.889Z,5.13
2023-02-24T05:26:16.782Z,3.10
2023-02-24T05:28:52.017Z,3.83
2023-02-24T05:31:28.330Z,2.63
2023-02-24T05:33:58.120Z,2.40
2023-02-24T05:36:29.123Z,5.37
2023-02-24T05:39:06.853Z,4.07
2023-02-24T05:41:38.080Z,3.53
2023-02-24T05:44:10.668Z,4.93
2023-02-24T05:46:40.499Z,6.47
2023-02-24T05:49:23.071Z,2.30
2023-02-24T05:51:55.413Z,4.20
2023-02-24T05:54:26.089Z,6.10
2023-02-24T05:56:53.485Z,4.73
2023-02-24T05:59:21.581Z,4.03
2023-02-24T06:01:52.917Z,6.23
2023-02-24T06:04:39.202Z,3.83
2023-02-24T06:07:13.975Z,3.67
2023-02-24T06:09:42.931Z,1.67
2023-02-24T06:12:11.339Z,5.13
2023-02-24T06:14:39.047Z,6.97
2023-02-24T06:17:06.343Z,6.00
2023-02-24T06:19:33.803Z,3.20
2023-02-24T06:22:02.001Z,3.37
2023-02-24T06:24:32.519Z,3.87
2023-02-24T06:27:09.525Z,5.93
2023-02-24T06:29:37.686Z,3.80
2023-02-24T06:32:09.064Z,1.93
2023-02-24T06:34:38.062Z,4.30
2023-02-24T06:37:07.275Z,2.20
2023-02-24T06:39:36.595Z,3.43
2023-02-24T06:42:05.412Z,2.40
2023-02-24T06:44:33.891Z,3.73
2023-02-24T06:47:01.448Z,5.53
2023-02-24T06:49:29.935Z,4.93
2023-02-24T06:51:57.609Z,3.20
2023-02-24T06:54:30.277Z,3.77
2023-02-24T06:57:00.960Z,6.13
2023-02-24T06:59:28.506Z,3.43
2023-02-24T07:01:57.209Z,7.53
2023-02-24T07:04:28.389Z,6.50
2023-02-24T07:07:03.425Z,8.37
2023-02-24T07:09:31.865Z,4.80
2023-02-24T07:12:02.492Z,6.67
2023-02-24T07:14:33.689Z,8.82
2023-02-24T07:17:00.960Z,5.90
2023-02-24T07:19:32.204Z,4.90
2023-02-24T07:22:02.122Z,2.60
2023-02-24T07:24:41.009Z,4.67
2023-02-24T07:27:12.650Z,4.33
2023-02-24T07:29:40.075Z,4.30
2023-02-24T07:32:09.297Z,7.10
2023-02-24T07:34:40.047Z,7.20
2023-02-24T07:37:09.083Z,4.57
2023-02-24T07:39:39.049Z,11.47
2023-02-24T07:42:08.602Z,2.20
2023-02-24T07:44:46.247Z,4.43
2023-02-24T07:47:16.322Z,5.20
2023-02-24T07:49:45.112Z,2.03
2023-02-24T07:52:12.336Z,2.73
2023-02-24T07:54:39.714Z,4.90
2023-02-24T07:57:14.166Z,2.03
2023-02-24T07:59:46.804Z,4.63
2023-02-24T08:02:15.516Z,7.72
2023-02-24T08:04:50.681Z,7.60
2023-02-24T08:07:24.087Z,4.07
2023-02-24T08:10:10.024Z,5.20
2023-02-24T08:12:42.553Z,4.57
2023-02-24T08:15:17.131Z,7.00
2023-02-24T08:17:47.209Z,9.90
2023-02-24T08:20:15.590Z,8.07
2023-02-24T08:22:46.812Z,7.57
2023-02-24T08:25:19.672Z,8.90
2023-02-24T08:28:12.513Z,12.07
2023-02-24T08:30:45.372Z,8.13
2023-02-24T08:33:19.181Z,7.50
2023-02-24T08:35:52.120Z,7.20
2023-02-24T08:38:25.288Z,5.97
2023-02-24T08:40:55.597Z,10.30
2023-02-24T08:43:32.796Z,8.80
2023-02-24T08:46:03.510Z,7.73
2023-02-24T08:48:37.549Z,5.47
2023-02-24T08:51:10.955Z,5.80
2023-02-24T08:53:42.130Z,5.13
2023-02-24T08:56:13.915Z,4.60
2023-02-24T08:58:48.100Z,5.20
2023-02-24T09:01:24.104Z,5.50
2023-02-24T09:03:55.820Z,5.33
2023-02-24T09:06:35.549Z,6.10
2023-02-24T09:09:18.814Z,7.93
2023-02-24T09:11:59.806Z,9.85
2023-02-24T09:14:36.399Z,8.13
2023-02-24T09:17:10.785Z,4.80
2023-02-24T09:19:51.728Z,7.03
2023-02-24T09:22:53.669Z,3.87
2023-02-24T09:25:40.300Z,4.93
2023-02-24T09:28:19.143Z,6.33
2023-02-24T09:30:58.480Z,4.50
2023-02-24T09:33:27.300Z,7.00
2023-02-24T09:36:12.758Z,9.37
2023-02-24T09:38:59.765Z,6.03
2023-02-24T09:41:56.066Z,9.80
2023-02-24T09:44:29.324Z,7.30
2023-02-24T09:47:08.673Z,8.10
2023-02-24T09:49:59.038Z,6.57
2023-02-24T09:52:42.362Z,5.80
2023-02-24T09:55:36.106Z,5.40
2023-02-24T09:58:34.774Z,6.30
2023-02-24T10:01:42.783Z,6.47
2023-02-24T10:04:53.832Z,11.43
2023-02-24T10:07:38.290Z,5.03
2023-02-24T10:10:25.520Z,6.30
2023-02-24T10:13:01.236Z,4.27
2023-02-24T10:15:59.048Z,5.33
2023-02-24T10:18:37.367Z,3.10
2023-02-24T10:21:49.563Z,5.20
2023-02-24T10:24:29.349Z,4.03
2023-02-24T10:27:16.687Z,4.03
2023-02-24T10:29:55.362Z,2.37
2023-02-24T10:32:48.555Z,7.50
2023-02-24T10:35:19.678Z,3.43
2023-02-24T10:37:49.108Z,5.20
2023-02-24T10:40:44.991Z,4.10
2023-02-24T10:43:25.179Z,2.80
2023-02-24T10:46:05.899Z,5.53
2023-02-24T10:48:43.631Z,5.63
2023-02-24T10:51:30.110Z,4.50
2023-02-24T10:54:35.654Z,3.80
2023-02-24T10:57:18.024Z,2.13
2023-02-24T11:00:08.822Z,5.53
2023-02-24T11:02:56.536Z,2.40
2023-02-24T11:05:27.228Z,3.20
2023-02-24T11:08:10.313Z,3.53
2023-02-24T11:10:53.366Z,5.23
2023-02-24T11:13:39.759Z,2.20
2023-02-24T11:16:28.235Z,3.10
2023-02-24T11:19:00.293Z,5.90
2023-02-24T11:21:28.187Z,8.23
2023-02-24T11:24:02.631Z,5.63
2023-02-24T11:26:38.385Z,4.57
2023-02-24T11:29:29.519Z,6.60
2023-02-24T11:32:08.845Z,2.60
2023-02-24T11:34:52.599Z,7.60
2023-02-24T11:37:32.155Z,3.63
2023-02-24T11:40:19.397Z,4.10
2023-02-24T11:43:03.080Z,5.40
2023-02-24T11:45:37.987Z,4.83
2023-02-24T11:48:23.425Z,6.10
2023-02-24T11:51:03.221Z,4.63
2023-02-24T11:53:58.754Z,6.03
2023-02-24T11:56:36.234Z,5.00
2023-02-24T11:59:27.282Z,6.37
2023-02-24T12:02:22.324Z,5.27
2023-02-24T12:05:18.238Z,5.27
2023-02-24T12:07:54.194Z,6.30
2023-02-24T12:10:41.276Z,4.90
2023-02-24T12:13:13.983Z,6.27
2023-02-24T12:15:48.561Z,5.90
2023-02-24T12:18:34.258Z,5.50
2023-02-24T12:21:30.590Z,7.77
2023-02-24T12:23:59.245Z,7.47
2023-02-24T12:26:47.888Z,7.47
2023-02-24T12:30:06.174Z,4.00
2023-02-24T12:33:07.358Z,6.83
2023-02-24T12:35:49.588Z,5.73
2023-02-24T12:38:43.253Z,6.17
2023-02-24T12:41:20.776Z,6.00
2023-02-24T12:43:56.505Z,5.27
2023-02-24T12:46:31.432Z,8.13
2023-02-24T12:49:26.684Z,6.33
2023-02-24T12:52:19.125Z,9.83
2023-02-24T12:55:06.082Z,7.10
2023-02-24T12:57:53.173Z,5.73
2023-02-24T13:00:40.580Z,6.33
2023-02-24T13:03:39.219Z,5.40
2023-02-24T13:06:21.627Z,7.03
2023-02-24T13:09:24.472Z,7.67
2023-02-24T13:11:56.576Z,9.23
2023-02-24T13:14:33.551Z,9.70
2023-02-24T13:17:12.897Z,12.03
2023-02-24T13:19:41.903Z,8.17
2023-02-24T13:22:13.816Z,5.27
2023-02-24T13:25:11.371Z,6.93
2023-02-24T13:27:42.256Z,9.80
2023-02-24T13:30:17.698Z,9.10
2023-02-24T13:32:47.357Z,4.50
2023-02-24T13:35:15.106Z,12.07
2023-02-24T13:37:46.894Z,15.07
2023-02-24T13:40:26.385Z,7.70
2023-02-24T13:42:56.513Z,7.33
2023-02-24T13:45:29.917Z,7.20
2023-02-24T13:48:29.852Z,9.70
2023-02-24T13:51:34.466Z,8.20
2023-02-24T13:54:21.221Z,7.47
2023-02-24T13:56:56.438Z,10.60
2023-02-24T13:59:35.192Z,12.17
2023-02-24T14:02:18.502Z,5.73
2023-02-24T14:04:52.474Z,12.67
2023-02-24T14:07:23.330Z,10.80
2023-02-24T14:09:59.541Z,15.70
2023-02-24T14:12:29.635Z,6.00
2023-02-24T14:14:57.527Z,7.97
2023-02-24T14:17:28.750Z,7.00
2023-02-24T14:20:11.349Z,9.23
2023-02-24T14:22:46.925Z,7.50
2023-02-24T14:25:15.658Z,12.13
2023-02-24T14:27:45.488Z,7.80
2023-02-24T14:30:26.041Z,10.60
2023-02-24T14:32:54.443Z,10.87
2023-02-24T14:35:32.583Z,13.13
2023-02-24T14:38:02.169Z,11.87
2023-02-24T14:40:29.814Z,8.73
2023-02-24T14:42:57.624Z,14.27
2023-02-24T14:45:27.462Z,7.83
2023-02-24T14:47:56.308Z,8.50
2023-02-24T14:50:31.875Z,5.00
2023-02-24T14:53:10.491Z,4.50
2023-02-24T14:55:41.050Z,8.30
2023-02-24T14:58:42.725Z,6.53
2023-02-24T15:01:26.383Z,9.70
2023-02-24T15:03:58.698Z,7.23
2023-02-24T15:06:30.116Z,7.87
2023-02-24T15:09:00.023Z,4.30
2023-02-24T15:11:29.923Z,4.73
2023-02-24T15:14:03.131Z,3.83
2023-02-24T15:16:38.495Z,7.57
2023-02-24T15:19:33.227Z,2.47
2023-02-24T15:22:00.418Z,2.67
2023-02-24T15:24:34.311Z,2.90
2023-02-24T15:27:15.609Z,3.93
2023-02-24T15:29:43.967Z,1.57
2023-02-24T15:32:18.849Z,2.53
2023-02-24T15:34:47.872Z,2.43
2023-02-24T15:37:22.088Z,2.60
2023-02-24T15:39:51.956Z,3.67
2023-02-24T15:42:29.004Z,1.50
2023-02-24T15:44:59.092Z,3.93
2023-02-24T15:47:43.987Z,2.90
2023-02-24T15:50:12.922Z,5.73
2023-02-24T15:52:41.667Z,4.50
2023-02-24T15:55:14.841Z,2.30
2023-02-24T15:57:43.335Z,3.53
2023-02-24T16:00:21.483Z,5.63
2023-02-24T16:02:48.911Z,4.73
2023-02-24T16:05:16.351Z,5.57
2023-02-24T16:07:45.960Z,7.40
2023-02-24T16:10:26.030Z,5.80
2023-02-24T16:12:56.360Z,4.90
2023-02-24T16:15:28.951Z,3.43
2023-02-24T16:17:57.272Z,5.10
2023-02-24T16:20:27.381Z,3.80
2023-02-24T16:23:00.096Z,7.27
2023-02-24T16:25:28.763Z,7.37
2023-02-24T16:27:59.181Z,3.60
2023-02-24T16:30:30.213Z,4.53
2023-02-24T16:33:00.034Z,4.27
2023-02-24T16:35:28.084Z,3.30
2023-02-24T16:37:55.780Z,6.60
2023-02-24T16:40:30.588Z,11.83
2023-02-24T16:42:57.919Z,6.60
2023-02-24T16:45:29.945Z,6.83
2023-02-24T16:48:02.211Z,10.10
2023-02-24T16:50:33.785Z,8.43
2023-02-24T16:53:01.604Z,9.03
2023-02-24T16:55:28.896Z,9.53
2023-02-24T16:57:56.745Z,7.87
2023-02-24T17:00:24.608Z,8.60
2023-02-24T17:02:53.489Z,12.87
2023-02-24T17:05:23.778Z,9.70
2023-02-24T17:07:53.694Z,11.60
2023-02-24T17:10:22.273Z,8.00
2023-02-24T17:12:50.755Z,12.80
2023-02-24T17:15:21.423Z,7.60
2023-02-24T17:17:49.112Z,11.00
2023-02-24T17:20:19.569Z,7.37
2023-02-24T17:22:47.232Z,8.80
2023-02-24T17:25:24.633Z,13.13
2023-02-24T17:27:52.481Z,11.43
2023-02-24T17:30:23.766Z,10.80
2023-02-24T17:32:51.176Z,8.37
2023-02-24T17:35:19.082Z,10.77
2023-02-24T17:37:46.422Z,11.50
2023-02-24T17:40:15.017Z,12.20
2023-02-24T17:42:42.501Z,14.40
2023-02-24T17:45:10.736Z,10.57
2023-02-24T17:47:37.999Z,12.60
2023-02-24T17:50:06.800Z,14.17
2023-02-24T17:52:34.258Z,16.37
2023-02-24T17:55:02.291Z,8.73
2023-02-24T17:57:35.271Z,12.33
2023-02-24T18:00:04.764Z,13.90
2023-02-24T18:02:39.629Z,13.80
2023-02-24T18:05:07.721Z,15.60
2023-02-24T18:07:35.530Z,16.97
2023-02-24T18:10:05.019Z,12.10
2023-02-24T18:12:32.319Z,20.27
2023-02-24T18:15:08.368Z,15.07
2023-02-24T18:17:38.078Z,18.57
2023-02-24T18:20:08.118Z,14.70
2023-02-24T18:22:35.592Z,16.40
2023-02-24T18:25:03.335Z,14.40
2023-02-24T18:27:30.931Z,14.80
2023-02-24T18:29:58.123Z,13.20
2023-02-24T18:32:25.469Z,15.37
2023-02-24T18:34:52.825Z,11.23
2023-02-24T18:37:21.992Z,9.53
2023-02-24T18:39:50.616Z,12.80
2023-02-24T18:42:17.921Z,18.07
2023-02-24T18:44:45.166Z,14.87
2023-02-24T18:47:12.322Z,14.23
2023-02-24T18:49:39.563Z,17.20
2023-02-24T18:52:07.475Z,16.37
2023-02-24T18:54:34.774Z,15.67
2023-02-24T18:57:02.149Z,15.93
2023-02-24T18:59:29.415Z,13.23
2023-02-24T19:01:57.127Z,11.77
2023-02-24T19:04:24.693Z,15.53
2023-02-24T19:06:52.019Z,10.93
2023-02-24T19:09:23.740Z,15.13
2023-02-24T19:11:52.067Z,11.43
2023-02-24T19:14:19.424Z,14.20
2023-02-24T19:16:46.790Z,8.13
2023-02-24T19:19:15.938Z,10.33
2023-02-24T19:21:45.291Z,13.70
2023-02-24T19:24:13.585Z,11.43
2023-02-24T19:26:42.663Z,14.50
2023-02-24T19:29:10.965Z,10.17
2023-02-24T19:31:38.489Z,15.20
2023-02-24T19:34:09.996Z,13.83
2023-02-24T19:36:37.992Z,10.13
2023-02-24T19:39:08.822Z,12.63
2023-02-24T19:41:36.856Z,9.47
2023-02-24T19:44:04.183Z,13.67
2023-02-24T19:46:33.883Z,10.33
2023-02-24T19:49:02.159Z,13.43
2023-02-24T19:51:30.219Z,11.43
2023-02-24T19:53:59.917Z,8.87
2023-02-24T19:56:30.786Z,18.20
2023-02-24T19:59:00.003Z,7.67
2023-02-24T20:01:29.334Z,13.00
2023-02-24T20:04:00.003Z,15.07
2023-02-24T20:06:31.618Z,16.50
2023-02-24T20:08:59.916Z,12.90
2023-02-24T20:11:29.601Z,11.17
2023-02-24T20:13:56.845Z,11.70
2023-02-24T20:16:25.793Z,10.90
2023-02-24T20:18:55.589Z,13.43
2023-02-24T20:21:25.350Z,10.37
2023-02-24T20:23:52.592Z,18.53
2023-02-24T20:26:20.802Z,13.07
2023-02-24T20:28:48.940Z,14.20
2023-02-24T20:31:19.400Z,15.60
2023-02-24T20:33:47.821Z,13.23
2023-02-24T20:36:26.391Z,13.40
2023-02-24T20:38:54.808Z,13.30
2023-02-24T20:41:22.272Z,12.13
2023-02-24T20:43:50.103Z,12.50
2023-02-24T20:46:25.967Z,9.43
2023-02-24T20:48:57.013Z,11.97
2023-02-24T20:51:25.734Z,16.63
2023-02-24T20:53:57.750Z,15.10
2023-02-24T20:56:32.776Z,10.10
2023-02-24T20:59:21.977Z,14.30
2023-02-24T21:01:50.534Z,10.23
2023-02-24T21:04:21.253Z,10.77
2023-02-24T21:06:48.951Z,8.20
2023-02-24T21:09:16.271Z,10.03
2023-02-24T21:11:43.633Z,12.17
2023-02-24T21:14:17.856Z,15.23
2023-02-24T21:16:49.536Z,16.60
2023-02-24T21:19:17.679Z,11.90
2023-02-24T21:21:45.080Z,9.00
2023-02-24T21:24:12.282Z,6.43
2023-02-24T21:26:39.700Z,10.77
2023-02-24T21:29:07.128Z,9.40
2023-02-24T21:31:34.374Z,11.40
2023-02-24T21:34:01.682Z,7.33
2023-02-24T21:36:30.593Z,8.00
2023-02-24T21:38:57.794Z,6.67
2023-02-24T21:41:25.216Z,4.03
2023-02-24T21:43:54.704Z,4.17
2023-02-24T21:46:24.923Z,4.60
2023-02-24T21:48:57.428Z,5.33
2023-02-24T21:51:26.252Z,4.70
2023-02-24T21:53:57.223Z,4.67
2023-02-24T21:56:27.491Z,5.40
2023-02-24T21:59:00.884Z,5.93
2023-02-24T22:01:34.370Z,5.10
2023-02-24T22:04:05.451Z,5.57
2023-02-24T22:06:34.831Z,3.57
2023-02-24T22:09:04.144Z,2.50
2023-02-24T22:11:35.181Z,10.83
2023-02-24T22:14:03.222Z,4.17
2023-02-24T22:16:30.654Z,5.80
2023-02-24T22:19:01.881Z,2.40
2023-02-24T22:21:30.007Z,3.53
2023-02-24T22:23:59.735Z,5.30
2023-02-24T22:26:28.967Z,1.40
2023-02-24T22:28:57.032Z,2.20
2023-02-24T22:31:27.766Z,1.40
2023-02-24T22:33:55.438Z,3.90
2023-02-24T22:36:28.205Z,5.60
2023-02-24T22:38:57.016Z,3.90
2023-02-24T22:41:31.434Z,5.20
2023-02-24T22:43:59.675Z,3.97
2023-02-24T22:46:38.152Z,2.20
2023-02-24T22:49:06.192Z,2.33
2023-02-24T22:51:33.607Z,0.70
2023-02-24T22:54:00.937Z,0.97
2023-02-24T22:56:29.310Z,3.63
2023-02-24T22:58:58.391Z,2.57
2023-02-24T23:01:36.837Z,1.00
2023-02-24T23:04:07.017Z,2.13
2023-02-24T23:06:35.666Z,2.50
2023-02-24T23:09:04.401Z,2.50
2023-02-24T23:11:36.308Z,4.60
2023-02-24T23:14:05.967Z,2.30
2023-02-24T23:16:34.927Z,2.53
2023-02-24T23:19:08.139Z,2.03
2023-02-24T23:21:38.095Z,2.10
2023-02-24T23:24:07.230Z,1.70
2023-02-24T23:26:43.237Z,1.67
2023-02-24T23:29:12.440Z,1.17
2023-02-24T23:31:41.137Z,1.23
2023-02-24T23:34:08.958Z,1.57
2023-02-24T23:36:38.627Z,1.93
2023-02-24T23:39:09.541Z,3.03
2023-02-24T23:41:38.286Z,2.53
2023-02-24T23:44:05.968Z,1.93
2023-02-24T23:46:34.954Z,2.20
2023-02-24T23:49:02.411Z,1.83
2023-02-24T23:51:45.698Z,0.87
2023-02-24T23:54:15.950Z,1.03
2023-02-24T23:56:43.202Z,1.27
2023-02-24T23:59:11.037Z,1.80
